AirNav   Air Wisconsin pilot careers
 
 930 users online  

5H3 Clear Lake Municipal Airport
Clear Lake, South Dakota, USA

GOING TO CLEAR LAKE?


FAA INFORMATION EFFECTIVE 08 NOVEMBER 2018

Location

FAA Identifier: 5H3
Lat/Long: 44-46-18.1002N / 096-41-18.2079W
44-46.301670N / 096-41.303465W
44.7716945 / -96.6883911
(estimated)
Elevation: 1804 ft. / 549.9 m (surveyed)
Variation: 06E (1985)
From city: 1 mile N of CLEAR LAKE, SD
Time zone: UTC -6 (UTC -5 during Daylight Saving Time)
Zip code: 57226

Airport Operations

Airport use: Open to the public
Activation date: 09/1964
Control tower: no
ARTCC: MINNEAPOLIS CENTER
FSS: HURON FLIGHT SERVICE STATION
NOTAMs facility: HON (NOTAM-D service available)
Attendance: UNATNDD
Wind indicator: lighted
Segmented circle: no
Lights: ACTVT LIRL RY 13/31 - CTAF.
Beacon: white-green (lighted land airport)
Operates sunset to sunrise.

Airport Communications

CTAF: 122.9
WX AWOS-3 at CNB (18 nm E): 118.575 (507-223-5293)

Nearby radio navigation aids

VOR radial/distance  VOR name  Freq  Var
ATYr114/23.0WATERTOWN VORTAC116.6009E

 
NDB name  Hdg/Dist  Freq  Var  ID
ORTONVILLE195/33.833205EVVV ...- ...- ...-
APPLETON221/39.835605EAQP .- --.- .--.

Airport Services

Parking: tiedowns
Airframe service: NONE
Powerplant service: NONE
Bottled oxygen: NONE
Bulk oxygen: NONE

Runway Information

Runway 13/31

Dimensions: 3000 x 150 ft. / 914 x 46 m
Surface: turf, in good condition
Runway edge lights: low intensity
Runway edge markings: RY 13 /31 MKD WITH WHITE AND BLACK CONE MARKERS.
RUNWAY 13  RUNWAY 31
Latitude: 44-46.480167N44-46.113000N
Longitude: 096-41.496333W096-41.031500W
Elevation: 1804.0 ft.1801.0 ft.
Gradient: 0.2%0.2%
Traffic pattern: leftleft
Markings: NSTDNSTD
Runway end identifier lights: nono
Obstructions: 17 ft. road, 340 ft. from runway, 20:1 slope to clear21 ft. pline, 420 ft. from runway, 20:1 slope to clear

Runway 2/20

Dimensions: 2130 x 150 ft. / 649 x 46 m
Surface: turf, in fair condition
RUNWAY 2  RUNWAY 20
Latitude: 44-46.146000N44-46.471667N
Longitude: 096-41.450000W096-41.268333W
Elevation: 1799.0 ft.1804.0 ft.
Traffic pattern: leftleft
Obstructions: none17 ft. road, 375 ft. from runway, 22:1 slope to clear

Airport Ownership and Management from official FAA records

Ownership: Publicly-owned
Owner: CITY OF CLEAR LAKE
PO BOX 107
CLEAR LAKE, SD 57226
Phone 605-874-2121
Manager: KAREN HARFORD
PO BOX 107
CLEAR LAKE, SD 57226
Phone 605-874-2121

Airport Operational Statistics

Aircraft based on the field: 3
Single engine airplanes: 3
    
Aircraft operations: avg 46/month *
91% local general aviation
9% transient general aviation
* for 12-month period ending 07 September 2017

Additional Remarks

RY 31 +4' FENCE 255' FM THR;
RY 02 +4' FENCE 145' FM THR.
ARPT CLSD WINTER MONTHS DUE TO SNOW CONDITIONS, CALL 605-874-2121 FOR CONDITIONS .
WILDLIFE ON & INVOF ARPT.

Instrument Procedures

There are no published instrument procedures at 5H3.

Some nearby airports with instrument procedures:

KCNB - Myers Field Airport (18 nm E)
KATY - Watertown Regional Airport (22 nm NW)
KDXX - Lac Qui Parle County Airport (25 nm NE)
1D1 - Milbank Municipal Airport (28 nm N)
KBKX - Brookings Regional Airport (29 nm S)
 
Loc | Ops | Rwys | IFR | FBO | Links
Com | Nav | Svcs | Stats | Notes

Mandan Aero Center
 
Area around 5H3 (Clear Lake Municipal Airport)
 
Road maps at: MapQuest Bing Google
 
Aerial photo
WARNING: Photo may not be current or correct
Aerial photo of 5H3 (Clear Lake Municipal Airport)
Photo by Steve Hamilton
Photo taken 28-Oct-2008

Do you have a better or more recent aerial photo of Clear Lake Municipal Airport that you would like to share? If so, please send us your photo.

 
Sectional chart

 
Airport distance calculator
Flying to Clear Lake Municipal Airport? Find the distance to fly.

From to 5H3

Sunrise and sunset
Times for 20-Nov-2018
 Local
(UTC-6)
 Zulu
(UTC)
Morning civil twilight06:5912:59
Sunrise07:3213:32
Sunset16:5322:53
Evening civil twilight17:2523:25

Current date and time
Zulu (UTC)  21-Nov-2018 02:51:40
Local (UTC-6)  20-Nov-2018 20:51:40
 
METAR
KCNB 
18nm E 
210235Z AUTO 30004KT 10SM OVC016 04/02 A3010 RMK AO2 T00410017
KATY 
21nm W 
210241Z AUTO 00000KT 1SM BR CLR M03/M03 A3005 RMK AO2 VIS 1/2V2 1/2 I1000 T10281028
KDXX 
26nm NE 
210235Z AUTO 31005KT 10SM OVC019 03/01 A3008 RMK AO2
KBKX 
30nm S 
210156Z AUTO 04003KT 10SM CLR M01/M02 A3006 RMK AO2 SLP216 T10061017 FZRANO
KVVV 
34nm N 
210236Z AUTO 01009KT 10SM SCT012 01/M01 A3008 RMK AO2
TAF
KATY 
21nm W 
202103Z 2021/2118 27011KT P6SM FEW090 FM210400 VRB04KT P6SM BKN010 FM210500 04005KT P6SM BKN003 FM211600 10008KT P6SM BKN010
NOTAMs
Click for the latest NOTAMs
NOTAMs are issued by the DoD/FAA and will open in a separate window not controlled by AirNav.

 

 
 

Would you like to see your business listed on this page?

 If your business provides an interesting product or service to pilots, flight crews, aircraft, or users of the Clear Lake Municipal Airport, you should consider listing it here.  To start the listing process, click on the button below
 
Add a business
 

Other Pages about Clear Lake Municipal Airport

Update a link
 
Copyright © AirNav, LLC. All rights reserved. Privacy Policy  Contact